Time;durP1;ratioP1;P1;durP2;ratioP2;P2;SDS_P1;SDS_P2;PMS_P1;PMS_P2;Temp;Humidity;BMP_temperature;BMP_pressure;BME280_temperature;BME280_humidity;BME280_pressure;Samples;Min_cycle;Max_cycle;Signal;HPM_P1;HPM_P2
2023/08/15 00:00:28;;;;;;;7.50;4.50;;;;;;;17.76;100.00;101067.91;105892;1257;66898;-64
2023/08/15 00:02:56;;;;;;;6.50;4.30;;;;;;;17.74;100.00;101070.98;105695;1251;72700;-65
2023/08/15 00:05:24;;;;;;;5.20;3.90;;;;;;;17.71;100.00;101071.00;105909;1251;60371;-65
2023/08/15 00:08:01;;;;;;;6.60;4.00;;;;;;;17.66;100.00;101068.79;105726;1251;60622;-66
2023/08/15 00:10:28;;;;;;;5.40;4.00;;;;;;;17.60;100.00;101069.73;105795;1251;73070;-64
2023/08/15 00:12:57;;;;;;;7.30;4.60;;;;;;;17.54;100.00;101063.69;105987;1252;66118;-65
2023/08/15 00:15:25;;;;;;;9.60;4.70;;;;;;;17.47;100.00;101064.45;105995;1251;73212;-67
2023/08/15 00:17:53;;;;;;;6.20;4.60;;;;;;;17.43;100.00;101063.77;106092;1251;61691;-67
2023/08/15 00:20:21;;;;;;;6.00;4.50;;;;;;;17.40;100.00;101067.40;105907;1251;59852;-64
2023/08/15 00:22:48;;;;;;;6.60;3.70;;;;;;;17.38;100.00;101069.25;105908;1251;72218;-64
2023/08/15 00:25:16;;;;;;;6.90;4.20;;;;;;;17.38;100.00;101068.54;106249;1254;66898;-65
2023/08/15 00:27:44;;;;;;;6.60;4.40;;;;;;;17.37;100.00;101073.03;106057;1251;73304;-63
2023/08/15 00:30:12;;;;;;;6.90;4.70;;;;;;;17.35;100.00;101075.76;105838;1251;60115;-63
2023/08/15 00:32:41;;;;;;;6.10;4.10;;;;;;;17.33;100.00;101076.27;105795;1253;59622;-65
2023/08/15 00:35:10;;;;;;;5.30;4.10;;;;;;;17.29;100.00;101080.31;105824;1251;73036;-65
2023/08/15 00:37:38;;;;;;;6.20;4.20;;;;;;;17.22;100.00;101079.56;105902;1251;67028;-63
2023/08/15 00:40:07;;;;;;;4.70;3.50;;;;;;;17.18;100.00;101076.45;105839;1256;73157;-67
2023/08/15 00:42:34;;;;;;;6.60;5.00;;;;;;;17.14;100.00;101078.82;105967;1250;59752;-66
2023/08/15 00:45:03;;;;;;;5.70;4.20;;;;;;;17.11;100.00;101077.77;105868;1250;60036;-64
2023/08/15 00:47:30;;;;;;;6.50;4.10;;;;;;;17.10;100.00;101083.36;106123;1256;72959;-66
2023/08/15 00:49:58;;;;;;;5.90;3.90;;;;;;;17.09;100.00;101083.00;105556;1260;67018;-66
2023/08/15 00:52:26;;;;;;;6.20;3.60;;;;;;;17.08;100.00;101078.95;106043;1257;72676;-63
2023/08/15 00:54:54;;;;;;;4.90;4.10;;;;;;;17.06;100.00;101079.84;105744;1251;60261;-64
2023/08/15 00:57:21;;;;;;;5.10;4.50;;;;;;;17.04;100.00;101079.35;105978;1251;60525;-63
2023/08/15 00:59:49;;;;;;;6.70;4.30;;;;;;;17.02;100.00;101078.23;106059;1250;73100;-66
2023/08/15 01:02:18;;;;;;;8.40;4.30;;;;;;;17.01;100.00;101079.46;105987;1251;67039;-62
2023/08/15 01:04:47;;;;;;;7.50;4.90;;;;;;;17.00;100.00;101082.76;105732;1251;72688;-64
2023/08/15 01:07:17;;;;;;;6.60;4.60;;;;;;;16.99;100.00;101085.69;105796;1256;60438;-63
2023/08/15 01:09:46;;;;;;;7.70;4.80;;;;;;;16.97;100.00;101086.98;105825;1259;59790;-66
2023/08/15 01:18:41;;;;;;;5.40;4.40;;;;;;;16.92;100.00;101084.92;102477;1290;600305;-63
2023/08/15 01:21:09;;;;;;;6.80;4.70;;;;;;;16.87;100.00;101089.44;104989;1264;60822;-63
2023/08/15 01:23:45;;;;;;;5.10;3.90;;;;;;;16.86;100.00;101088.66;105054;1269;59314;-63
2023/08/15 01:26:12;;;;;;;5.20;4.10;;;;;;;16.86;100.00;101088.89;105004;1263;70450;-64
2023/08/15 01:28:40;;;;;;;7.50;4.00;;;;;;;16.87;100.00;101092.39;105126;1266;67081;-64
2023/08/15 01:31:26;;;;;;;5.60;4.40;;;;;;;16.86;100.00;101098.34;104798;1270;206678;-64
2023/08/15 01:34:12;;;;;;;7.30;4.50;;;;;;;16.83;100.00;101096.44;105307;1266;61640;-67
2023/08/15 01:36:44;;;;;;;7.70;4.70;;;;;;;16.80;100.00;101101.42;105020;1266;59099;-64
2023/08/15 01:46:58;;;;;;;6.30;4.40;;;;;;;16.81;100.00;101097.38;102362;1295;600069;-64
2023/08/15 01:49:26;;;;;;;10.70;4.60;;;;;;;16.83;100.00;101101.74;104712;1270;59927;-67
2023/08/15 01:51:54;;;;;;;5.60;3.80;;;;;;;16.84;100.00;101104.79;104878;1273;59182;-63
2023/08/15 01:54:22;;;;;;;6.10;5.50;;;;;;;16.83;100.00;101106.29;104953;1267;71082;-62
2023/08/15 01:56:50;;;;;;;7.10;5.40;;;;;;;16.82;100.00;101110.14;104868;1267;66904;-63
2023/08/15 01:59:18;;;;;;;6.50;5.00;;;;;;;16.83;100.00;101113.91;104294;1268;71497;-67
2023/08/15 02:01:45;;;;;;;8.00;4.70;;;;;;;16.81;100.00;101115.92;104483;1267;211092;-63
2023/08/15 02:04:13;;;;;;;5.50;4.80;;;;;;;16.78;100.00;101117.27;105061;1260;60126;-63
2023/08/15 02:06:41;;;;;;;5.60;4.50;;;;;;;16.75;100.00;101118.31;105165;1261;71353;-63
2023/08/15 02:09:09;;;;;;;6.30;4.30;;;;;;;16.71;100.00;101117.42;105028;1267;66254;-63
2023/08/15 02:11:37;;;;;;;6.60;5.00;;;;;;;16.65;100.00;101118.77;105204;1267;73505;-64
2023/08/15 02:14:04;;;;;;;6.80;4.80;;;;;;;16.60;100.00;101115.73;105042;1265;60535;-63
2023/08/15 02:16:32;;;;;;;6.40;4.80;;;;;;;16.58;100.00;101114.34;105081;1261;60256;-63
2023/08/15 02:26:47;;;;;;;6.30;5.20;;;;;;;16.52;100.00;101117.23;102198;1292;600753;-63
2023/08/15 02:29:16;;;;;;;6.20;4.40;;;;;;;16.48;100.00;101118.80;105071;1266;59417;-66
2023/08/15 02:31:49;;;;;;;7.40;4.20;;;;;;;16.49;100.00;101116.54;104872;1269;59315;-63
2023/08/15 02:34:17;;;;;;;5.30;3.90;;;;;;;16.51;100.00;101112.39;105024;1265;71594;-64
2023/08/15 02:36:48;;;;;;;6.70;4.50;;;;;;;16.52;100.00;101115.89;104783;1270;66906;-63
2023/08/15 02:39:16;;;;;;;7.00;4.80;;;;;;;16.54;100.00;101116.68;104832;1266;240188;-66
2023/08/15 02:41:44;;;;;;;5.10;4.40;;;;;;;16.55;100.00;101119.56;105259;1260;62145;-62
2023/08/15 02:44:12;;;;;;;5.90;4.50;;;;;;;16.58;100.00;101122.23;105574;1257;60051;-63
2023/08/15 02:46:40;;;;;;;5.70;4.60;;;;;;;16.61;100.00;101125.13;105359;1257;72304;-61
2023/08/15 02:49:08;;;;;;;5.70;5.00;;;;;;;16.68;100.00;101127.31;105479;1261;67497;-65
2023/08/15 02:51:36;;;;;;;7.30;4.80;;;;;;;16.74;100.00;101130.63;105025;1256;72719;-61
2023/08/15 02:54:04;;;;;;;7.00;5.30;;;;;;;16.79;100.00;101131.60;105414;1261;62168;-61
2023/08/15 02:56:32;;;;;;;5.90;4.90;;;;;;;16.84;100.00;101128.52;105605;1256;60063;-63
2023/08/15 02:59:00;;;;;;;6.90;5.40;;;;;;;16.89;100.00;101130.91;105410;1256;73084;-63
2023/08/15 03:01:28;;;;;;;7.30;5.20;;;;;;;16.95;100.00;101130.09;105537;1255;67068;-63
2023/08/15 03:03:56;;;;;;;6.70;5.10;;;;;;;17.07;100.00;101133.17;105555;1259;73143;-64
2023/08/15 03:06:24;;;;;;;6.60;4.20;;;;;;;17.30;100.00;101138.29;105682;1254;61730;-66
2023/08/15 03:08:51;;;;;;;8.00;4.20;;;;;;;17.59;100.00;101141.91;105406;1259;59503;-63
2023/08/15 03:11:19;;;;;;;6.50;4.50;;;;;;;17.79;100.00;101145.73;105606;1254;73140;-65
2023/08/15 03:13:47;;;;;;;7.10;4.80;;;;;;;17.93;100.00;101145.59;105621;1259;66139;-62
2023/08/15 03:16:15;;;;;;;4.80;4.00;;;;;;;18.07;100.00;101146.73;105399;1255;72643;-63
2023/08/15 03:18:43;;;;;;;5.10;4.20;;;;;;;18.17;100.00;101144.22;105370;1259;60667;-64
2023/08/15 03:21:10;;;;;;;7.30;4.40;;;;;;;18.27;100.00;101148.67;105541;1259;59603;-63
2023/08/15 03:23:38;;;;;;;7.60;4.30;;;;;;;18.40;100.00;101149.11;105359;1256;71854;-63
2023/08/15 03:26:07;;;;;;;8.20;4.40;;;;;;;18.58;100.00;101153.46;105692;1261;66965;-64
2023/08/15 03:28:36;;;;;;;5.90;4.90;;;;;;;18.76;100.00;101158.40;105275;1258;71405;-65
2023/08/15 03:31:08;;;;;;;8.60;5.10;;;;;;;18.97;100.00;101162.14;105255;1257;62347;-63
2023/08/15 03:33:43;;;;;;;7.60;4.80;;;;;;;19.51;100.00;101162.30;105361;1256;60074;-62
2023/08/15 03:36:11;;;;;;;7.70;4.80;;;;;;;20.32;100.00;101161.42;105539;1258;73499;-64
2023/08/15 03:38:41;;;;;;;5.70;5.00;;;;;;;21.33;100.00;101159.64;105235;1256;66930;-63
2023/08/15 03:41:09;;;;;;;5.80;4.50;;;;;;;22.61;100.00;101157.68;105292;1256;71443;-64
2023/08/15 03:43:36;;;;;;;5.90;4.20;;;;;;;24.03;100.00;101153.99;105188;1259;59700;-63
2023/08/15 03:46:05;;;;;;;5.00;3.60;;;;;;;25.43;100.00;101133.70;105550;1259;59778;-62
2023/08/15 03:48:35;;;;;;;5.10;4.10;;;;;;;26.77;100.00;101108.80;105656;1258;71872;-63
2023/08/15 03:51:04;;;;;;;4.60;3.70;;;;;;;27.98;100.00;101067.54;105415;1257;65676;-65
2023/08/15 03:53:32;;;;;;;5.30;4.00;;;;;;;29.10;100.00;101038.89;105676;1256;72619;-63
2023/08/15 03:56:00;;;;;;;5.50;3.80;;;;;;;30.14;100.00;101028.94;105770;1253;60634;-64
2023/08/15 03:58:28;;;;;;;4.70;3.60;;;;;;;31.02;100.00;101028.77;105906;1251;59553;-66
2023/08/15 04:00:56;;;;;;;4.10;3.30;;;;;;;31.77;100.00;101028.33;105692;1251;73558;-63
2023/08/15 04:03:24;;;;;;;5.20;3.50;;;;;;;32.45;100.00;101023.59;105759;1251;66604;-63
2023/08/15 04:05:51;;;;;;;4.50;3.40;;;;;;;33.11;100.00;101019.69;105858;1251;72673;-63
2023/08/15 04:08:20;;;;;;;7.10;3.50;;;;;;;33.72;100.00;101023.10;105833;1251;59597;-65
2023/08/15 04:10:48;;;;;;;5.20;3.90;;;;;;;34.28;99.88;101022.27;105934;1253;59542;-65
2023/08/15 04:13:17;;;;;;;5.60;3.40;;;;;;;34.54;94.19;101027.00;105781;1257;71417;-66
2023/08/15 04:15:44;;;;;;;3.90;3.00;;;;;;;34.58;90.71;101025.55;105528;1256;59715;-61
2023/08/15 04:18:12;;;;;;;7.20;3.50;;;;;;;34.79;87.24;101025.41;105492;1259;63879;-61
2023/08/15 04:20:41;;;;;;;5.50;3.60;;;;;;;35.11;83.08;101024.35;105864;1253;59711;-63
2023/08/15 04:23:09;;;;;;;6.10;3.60;;;;;;;35.54;75.96;101023.98;105817;1254;59697;-65
2023/08/15 04:25:38;;;;;;;4.50;3.50;;;;;;;35.99;67.49;101024.41;105480;1258;64883;-62
2023/08/15 04:28:06;;;;;;;8.20;3.70;;;;;;;36.41;61.81;101025.24;105785;1252;60024;-62
2023/08/15 04:30:35;;;;;;;3.70;3.30;;;;;;;36.82;57.09;101019.33;106015;1254;64225;-65
2023/08/15 04:33:03;;;;;;;4.10;3.30;;;;;;;37.13;54.52;101019.09;105728;1253;59734;-62
2023/08/15 04:35:31;;;;;;;4.40;3.90;;;;;;;37.41;51.41;101014.98;105810;1256;59453;-64
2023/08/15 04:37:59;;;;;;;6.80;4.00;;;;;;;37.54;48.79;101017.75;105844;1253;64252;-62
2023/08/15 04:40:32;;;;;;;4.20;3.50;;;;;;;37.74;47.50;101018.45;106048;1253;59641;-65
2023/08/15 04:43:00;;;;;;;4.30;3.90;;;;;;;38.13;46.49;101019.92;105745;1253;62435;-62
2023/08/15 04:45:28;;;;;;;4.00;3.60;;;;;;;38.57;43.93;101020.81;105895;1253;59643;-63
2023/08/15 04:47:57;;;;;;;4.40;3.80;;;;;;;38.97;41.69;101020.54;105492;1256;59554;-65
2023/08/15 04:50:25;;;;;;;4.60;3.60;;;;;;;39.33;40.01;101021.84;105939;1253;62959;-64
2023/08/15 04:52:52;;;;;;;5.20;4.00;;;;;;;39.67;37.93;101023.34;105494;1256;59541;-63
2023/08/15 04:55:22;;;;;;;;;;;;;;;39.89;37.45;101025.39;105864;1254;62584;-62
2023/08/15 04:57:50;;;;;;;6.50;4.60;;;;;;;40.20;36.67;101026.16;105490;1256;59648;-63
2023/08/15 05:00:19;;;;;;;5.10;4.00;;;;;;;40.43;35.96;101022.11;105744;1256;59862;-65
2023/08/15 05:02:48;;;;;;;5.20;4.10;;;;;;;40.65;35.16;101019.88;105687;1254;63068;-63
2023/08/15 05:05:16;;;;;;;5.00;3.80;;;;;;;40.89;34.54;101018.19;105813;1253;59737;-65
2023/08/15 05:07:44;;;;;;;7.10;4.10;;;;;;;41.04;33.93;101020.13;105326;1253;62494;-63
2023/08/15 05:10:13;;;;;;;4.70;3.90;;;;;;;41.01;33.42;101020.85;105921;1254;59500;-65
2023/08/15 05:12:43;;;;;;;4.00;3.30;;;;;;;40.86;33.67;101020.02;105539;1253;59627;-64
2023/08/15 05:15:10;;;;;;;5.40;3.60;;;;;;;40.86;33.85;101019.16;105955;1257;63008;-65
2023/08/15 05:17:39;;;;;;;4.60;3.80;;;;;;;40.89;33.84;101017.63;105772;1253;60134;-63
2023/08/15 05:20:08;;;;;;;7.40;4.20;;;;;;;40.85;34.11;101020.88;105431;1257;62508;-66
2023/08/15 05:22:37;;;;;;;5.10;4.00;;;;;;;41.04;34.11;101021.59;105660;1254;59686;-63
2023/08/15 05:25:05;;;;;;;4.40;3.90;;;;;;;41.13;33.48;101023.27;105848;1259;59594;-63
2023/08/15 05:27:37;;;;;;;4.70;4.30;;;;;;;41.13;33.36;101023.89;105764;1259;64192;-63
2023/08/15 05:30:06;;;;;;;6.40;4.20;;;;;;;41.25;33.24;101024.34;105968;1252;59715;-64
2023/08/15 05:32:34;;;;;;;6.20;3.90;;;;;;;41.42;32.70;101021.89;105703;1252;73296;-62
2023/08/15 05:35:02;;;;;;;5.50;4.20;;;;;;;41.56;32.27;101024.15;105937;1253;59098;-64
2023/08/15 05:37:30;;;;;;;6.10;4.20;;;;;;;41.69;32.07;101024.27;105916;1253;59531;-66
2023/08/15 05:39:57;;;;;;;5.60;4.40;;;;;;;41.81;31.79;101021.81;105929;1257;64231;-65
2023/08/15 05:42:29;;;;;;;5.70;4.30;;;;;;;41.70;31.50;101022.88;105603;1256;59549;-62
2023/08/15 05:44:57;;;;;;;5.20;4.00;;;;;;;41.61;31.45;101024.29;105516;1254;63253;-63
2023/08/15 05:47:25;;;;;;;4.80;4.00;;;;;;;41.68;31.55;101024.26;105929;1256;59617;-65
2023/08/15 05:49:52;;;;;;;6.80;3.50;;;;;;;41.77;31.23;101026.70;105403;1256;59798;-64
2023/08/15 05:52:20;;;;;;;6.10;3.90;;;;;;;41.85;30.95;101024.28;105580;1256;64337;-63
2023/08/15 05:54:48;;;;;;;6.60;4.20;;;;;;;41.94;31.11;101029.20;105870;1256;59718;-63
2023/08/15 05:57:16;;;;;;;6.10;3.90;;;;;;;42.02;30.75;101026.78;105778;1253;63709;-66
2023/08/15 05:59:44;;;;;;;5.50;4.50;;;;;;;41.92;30.22;101030.21;105511;1252;59852;-63
2023/08/15 06:02:15;;;;;;;6.00;4.00;;;;;;;41.65;30.47;101031.20;105998;1256;59910;-64
2023/08/15 06:04:43;;;;;;;7.10;4.70;;;;;;;41.25;31.16;101035.20;105857;1252;62893;-63
2023/08/15 06:07:14;;;;;;;6.20;4.10;;;;;;;40.99;31.79;101038.94;105804;1256;59534;-62
2023/08/15 06:09:43;;;;;;;9.00;4.50;;;;;;;40.98;31.76;101034.86;105732;1254;62525;-63
2023/08/15 06:19:57;;;;;;;4.60;3.90;;;;;;;40.82;32.50;101031.98;102469;1292;600970;-62
2023/08/15 06:22:25;;;;;;;5.50;3.80;;;;;;;40.89;32.65;101035.61;104853;1270;59196;-61
2023/08/15 06:24:53;;;;;;;5.00;3.80;;;;;;;41.13;31.88;101035.68;104829;1269;59580;-64
2023/08/15 06:27:21;;;;;;;5.90;3.50;;;;;;;41.26;31.24;101034.98;104607;1270;64190;-64
2023/08/15 06:29:50;;;;;;;4.90;3.90;;;;;;;41.05;30.51;101029.48;105000;1264;59251;-63
2023/08/15 06:32:27;;;;;;;5.50;3.30;;;;;;;40.89;31.68;101032.31;104725;1267;63114;-62
2023/08/15 06:34:55;;;;;;;5.20;3.20;;;;;;;41.00;31.53;101028.18;104788;1261;60576;-63
2023/08/15 06:37:23;;;;;;;5.10;3.20;;;;;;;41.01;30.54;101028.35;104770;1261;59291;-63
2023/08/15 06:39:50;;;;;;;4.20;2.90;;;;;;;40.88;30.38;101020.83;105038;1266;63367;-64
2023/08/15 06:42:18;;;;;;;6.50;3.40;;;;;;;40.75;29.96;101021.13;105268;1258;59327;-63
2023/08/15 06:44:46;;;;;;;5.40;3.50;;;;;;;40.37;30.45;101021.19;105205;1264;63737;-63
2023/08/15 06:47:14;;;;;;;4.90;3.10;;;;;;;40.07;30.59;101020.85;105136;1262;59611;-65
2023/08/15 06:49:42;;;;;;;6.90;3.40;;;;;;;40.05;31.19;101019.95;105221;1263;59622;-64
2023/08/15 06:52:10;;;;;;;5.00;3.20;;;;;;;40.12;31.82;101019.31;105130;1258;62996;-64
2023/08/15 06:54:37;;;;;;;4.10;3.10;;;;;;;40.23;32.75;101018.09;105251;1263;59547;-63
2023/08/15 06:57:07;;;;;;;4.10;3.30;;;;;;;40.41;32.06;101018.59;105551;1260;63785;-65
2023/08/15 06:59:35;;;;;;;5.10;3.60;;;;;;;40.46;31.32;101015.46;105129;1264;60129;-63
2023/08/15 07:02:05;;;;;;;5.20;3.00;;;;;;;40.32;31.49;101015.18;105207;1258;59742;-63
2023/08/15 07:04:36;;;;;;;5.70;3.40;;;;;;;40.16;30.79;101016.17;105194;1264;64166;-63
2023/08/15 07:07:04;;;;;;;3.40;2.80;;;;;;;39.98;30.29;101016.48;105048;1263;59630;-62
2023/08/15 07:09:32;;;;;;;5.90;2.90;;;;;;;39.57;30.22;101016.30;105957;1255;62444;-64
2023/08/15 07:12:00;;;;;;;4.70;3.10;;;;;;;39.12;31.33;101013.00;105950;1257;59705;-63
2023/08/15 07:14:28;;;;;;;3.80;2.20;;;;;;;39.05;31.34;101015.88;106015;1251;59615;-62
2023/08/15 07:16:56;;;;;;;4.10;2.90;;;;;;;38.99;32.22;101016.54;105989;1249;63403;-64
2023/08/15 07:19:24;;;;;;;3.60;2.50;;;;;;;39.11;33.02;101012.75;105937;1251;60280;-62
2023/08/15 07:21:52;;;;;;;7.90;2.40;;;;;;;39.19;32.13;101014.05;106208;1257;63665;-64
2023/08/15 07:24:21;;;;;;;3.00;2.60;;;;;;;39.08;32.56;101010.33;105872;1256;59678;-63
2023/08/15 07:26:49;;;;;;;3.40;2.10;;;;;;;39.13;32.43;101008.48;106046;1257;59586;-64
2023/08/15 07:29:16;;;;;;;3.30;2.30;;;;;;;39.07;31.83;101008.60;105550;1257;73629;-62
2023/08/15 07:31:44;;;;;;;5.20;2.20;;;;;;;38.69;32.57;101009.10;105801;1256;59214;-64
2023/08/15 07:34:12;;;;;;;2.00;1.80;;;;;;;38.45;33.82;101006.86;105552;1264;62866;-62
2023/08/15 07:36:39;;;;;;;3.00;2.10;;;;;;;38.49;33.35;101004.61;106110;1252;60347;-64
2023/08/15 07:39:07;;;;;;;3.50;2.30;;;;;;;38.50;32.80;101004.56;105603;1251;59800;-62
2023/08/15 07:41:35;;;;;;;3.50;2.20;;;;;;;38.31;33.64;101001.83;105851;1254;64157;-62
2023/08/15 07:44:03;;;;;;;2.70;1.80;;;;;;;38.05;33.43;101003.92;105646;1255;59629;-63
2023/08/15 07:46:31;;;;;;;2.50;1.90;;;;;;;37.92;34.64;101003.69;106314;1255;62505;-62
2023/08/15 07:48:58;;;;;;;3.10;2.00;;;;;;;38.40;35.41;101000.33;105632;1255;59336;-64
2023/08/15 07:51:27;;;;;;;2.90;1.80;;;;;;;39.14;34.05;101000.48;105949;1255;60095;-63
2023/08/15 07:53:55;;;;;;;2.40;1.70;;;;;;;39.74;30.89;101000.33;105772;1252;62910;-64
2023/08/15 07:56:23;;;;;;;3.20;1.70;;;;;;;40.19;29.55;100995.47;105783;1257;59523;-62
2023/08/15 07:58:51;;;;;;;3.10;2.00;;;;;;;40.38;28.40;100991.92;105852;1257;62498;-63
2023/08/15 08:01:19;;;;;;;3.10;2.10;;;;;;;40.40;28.17;100992.97;105744;1257;59573;-62
2023/08/15 08:03:47;;;;;;;2.90;1.90;;;;;;;40.39;28.20;100988.74;105964;1257;59448;-63
2023/08/15 08:06:15;;;;;;;3.50;1.60;;;;;;;40.63;27.72;100986.83;105848;1256;63775;-62
2023/08/15 08:09:05;;;;;;;3.00;2.10;;;;;;;40.64;27.25;100984.03;105716;1256;59599;-62
2023/08/15 08:11:32;;;;;;;4.60;2.10;;;;;;;40.49;27.96;100980.77;106018;1256;74068;-66
2023/08/15 08:14:00;;;;;;;2.60;1.80;;;;;;;40.63;28.06;100977.54;105809;1256;60146;-63
2023/08/15 08:16:28;;;;;;;2.70;1.80;;;;;;;40.84;27.43;100981.41;105955;1252;59644;-65
2023/08/15 08:18:56;;;;;;;6.10;1.80;;;;;;;40.94;27.42;100980.44;105689;1257;63770;-63
2023/08/15 08:21:24;;;;;;;4.30;1.90;;;;;;;41.10;26.74;100974.63;105610;1251;59640;-63
2023/08/15 08:23:52;;;;;;;3.30;1.90;;;;;;;41.08;26.52;100968.65;105946;1254;63869;-62
2023/08/15 08:26:20;;;;;;;2.50;1.40;;;;;;;40.60;26.17;100967.58;105636;1257;59659;-62
2023/08/15 08:28:48;;;;;;;2.60;1.40;;;;;;;40.43;27.16;100968.20;105947;1256;59618;-64
2023/08/15 08:31:15;;;;;;;2.90;1.60;;;;;;;40.57;26.87;100969.17;105978;1251;62850;-64
2023/08/15 08:33:43;;;;;;;2.00;1.30;;;;;;;40.69;26.40;100963.10;105918;1256;61063;-63
2023/08/15 08:36:11;;;;;;;3.10;1.70;;;;;;;40.78;26.30;100967.42;105912;1266;63851;-63
2023/08/15 08:38:38;;;;;;;2.40;1.60;;;;;;;40.81;26.19;100965.67;106051;1256;59983;-63
2023/08/15 08:41:06;;;;;;;3.40;2.10;;;;;;;40.50;26.04;100966.03;105798;1251;60124;-63
2023/08/15 08:43:34;;;;;;;2.60;1.40;;;;;;;40.34;26.90;100964.31;105463;1257;62947;-65
2023/08/15 08:46:03;;;;;;;2.60;1.40;;;;;;;40.50;27.48;100964.31;105719;1252;59573;-62
2023/08/15 08:48:32;;;;;;;2.10;1.50;;;;;;;40.85;26.67;100960.40;106104;1251;63816;-65
2023/08/15 08:51:02;;;;;;;2.80;1.30;;;;;;;41.03;25.98;100953.67;105862;1256;59608;-63
2023/08/15 08:53:29;;;;;;;2.10;1.30;;;;;;;41.10;26.48;100951.72;105849;1256;59857;-65
2023/08/15 08:55:57;;;;;;;2.30;1.30;;;;;;;41.24;26.06;100951.64;105497;1251;62976;-62
2023/08/15 08:58:25;;;;;;;2.10;1.10;;;;;;;41.09;25.08;100956.16;105912;1257;59602;-64
2023/08/15 09:00:53;;;;;;;2.60;1.50;;;;;;;40.80;25.49;100954.95;105758;1255;63784;-62
2023/08/15 09:03:21;;;;;;;2.90;1.40;;;;;;;40.58;25.70;100953.27;105768;1251;59700;-64
2023/08/15 09:05:49;;;;;;;2.50;1.60;;;;;;;40.28;26.29;100951.59;105820;1251;61006;-63
2023/08/15 09:08:17;;;;;;;3.00;1.50;;;;;;;40.10;26.82;100946.70;105867;1256;64314;-64
2023/08/15 09:10:44;;;;;;;4.90;1.50;;;;;;;40.08;26.55;100941.75;105614;1251;59532;-63
2023/08/15 09:13:12;;;;;;;3.70;1.70;;;;;;;39.98;26.58;100945.58;105742;1257;62488;-62
2023/08/15 09:15:40;;;;;;;2.00;1.50;;;;;;;39.89;27.33;100942.16;105733;1257;59564;-64
2023/08/15 09:18:08;;;;;;;2.80;1.40;;;;;;;39.63;27.33;100940.48;106476;1255;59593;-65
2023/08/15 09:20:44;;;;;;;3.30;1.50;;;;;;;39.34;28.10;100936.45;105615;1256;63006;-63
2023/08/15 09:23:12;;;;;;;3.70;1.80;;;;;;;39.23;29.29;100933.42;105824;1255;59660;-62
2023/08/15 09:25:40;;;;;;;3.90;1.90;;;;;;;39.05;29.78;100931.77;105833;1251;63871;-63
2023/08/15 09:28:07;;;;;;;2.50;1.80;;;;;;;38.54;30.14;100926.71;106118;1258;59727;-64
2023/08/15 09:30:36;;;;;;;2.60;1.90;;;;;;;38.10;30.91;100921.93;105574;1252;61504;-63
2023/08/15 09:33:04;;;;;;;3.40;2.00;;;;;;;37.86;31.43;100920.86;105802;1255;64855;-63
2023/08/15 09:35:33;;;;;;;2.70;1.80;;;;;;;37.79;32.64;100914.91;105996;1251;59522;-64
2023/08/15 09:38:07;;;;;;;3.60;1.70;;;;;;;37.87;32.89;100913.73;105638;1255;63790;-64
2023/08/15 09:40:34;;;;;;;3.60;2.00;;;;;;;37.83;32.03;100916.45;105620;1254;59634;-63
2023/08/15 09:43:03;;;;;;;4.30;1.90;;;;;;;37.48;31.96;100921.16;105898;1257;59604;-63
2023/08/15 09:45:31;;;;;;;3.20;1.90;;;;;;;37.20;32.41;100922.35;105886;1256;64680;-62
2023/08/15 09:47:59;;;;;;;3.60;2.10;;;;;;;37.06;32.85;100916.44;105824;1254;59750;-62
2023/08/15 09:50:27;;;;;;;3.40;2.00;;;;;;;37.08;34.76;100912.16;105833;1254;64533;-64
2023/08/15 09:52:54;;;;;;;3.00;1.90;;;;;;;37.29;36.37;100912.95;105803;1264;59656;-62
2023/08/15 09:55:22;;;;;;;4.70;1.70;;;;;;;37.49;36.49;100907.34;105770;1256;59636;-64
2023/08/15 09:57:50;;;;;;;2.30;1.70;;;;;;;37.89;36.96;100908.81;105849;1253;64203;-65
2023/08/15 10:00:18;;;;;;;2.40;1.60;;;;;;;38.29;34.50;100907.19;105886;1257;59675;-64
2023/08/15 10:03:00;;;;;;;4.20;1.70;;;;;;;38.44;33.54;100906.38;105911;1256;62481;-62
2023/08/15 10:05:33;;;;;;;3.60;1.80;;;;;;;38.30;32.70;100908.29;105840;1257;59706;-62
2023/08/15 10:08:01;;;;;;;2.30;1.50;;;;;;;38.08;34.36;100905.54;105966;1255;59522;-63
2023/08/15 10:10:33;;;;;;;3.20;2.10;;;;;;;38.01;33.99;100906.55;105944;1257;62893;-63
2023/08/15 10:13:01;;;;;;;3.10;2.30;;;;;;;37.79;35.01;100909.89;105762;1250;59128;-64
2023/08/15 10:15:30;;;;;;;3.30;2.10;;;;;;;37.76;35.85;100908.80;105843;1256;63178;-63
2023/08/15 10:17:58;;;;;;;5.50;2.00;;;;;;;37.93;36.59;100905.34;106068;1254;62899;-65
2023/08/15 10:20:26;;;;;;;2.80;1.90;;;;;;;38.20;35.14;100904.33;105791;1255;59650;-62
2023/08/15 10:22:54;;;;;;;3.00;2.00;;;;;;;38.41;34.55;100903.86;105904;1251;62843;-61
2023/08/15 10:25:28;;;;;;;2.70;1.90;;;;;;;38.40;33.45;100898.63;106122;1256;59237;-65
2023/08/15 10:27:56;;;;;;;3.90;2.00;;;;;;;38.17;33.15;100896.25;106027;1254;63830;-64
2023/08/15 10:30:35;;;;;;;3.40;2.00;;;;;;;37.90;34.02;100896.15;105603;1257;60526;-63
2023/08/15 10:33:26;;;;;;;3.00;1.80;;;;;;;37.76;34.82;100896.52;105624;1256;60502;-64
2023/08/15 10:35:54;;;;;;;2.60;1.90;;;;;;;37.83;35.73;100896.06;106059;1251;65431;-63
2023/08/15 10:38:40;;;;;;;3.30;1.80;;;;;;;38.12;35.01;100894.20;105866;1260;60331;-63
2023/08/15 10:41:16;;;;;;;4.10;1.70;;;;;;;38.67;33.91;100893.23;105791;1254;63734;-63
2023/08/15 10:43:49;;;;;;;3.00;1.70;;;;;;;39.16;33.25;100890.38;105808;1258;60446;-64
2023/08/15 10:54:06;;;;;;;2.70;1.40;;;;;;;39.98;29.86;100882.70;102720;1292;600676;-66
2023/08/15 10:56:37;;;;;;;4.00;1.60;;;;;;;39.80;30.58;100880.40;104957;1270;59167;-64
2023/08/15 10:59:12;;;;;;;2.80;1.60;;;;;;;39.74;32.31;100882.05;105009;1270;59199;-66
2023/08/15 11:01:41;;;;;;;2.30;1.50;;;;;;;39.86;31.93;100878.39;105242;1264;63396;-63
2023/08/15 11:04:13;;;;;;;2.60;1.80;;;;;;;39.91;30.90;100876.59;105093;1261;59261;-64
2023/08/15 11:06:42;;;;;;;2.50;1.70;;;;;;;39.72;31.37;100878.02;105026;1261;216057;-65
2023/08/15 11:09:10;;;;;;;2.50;1.70;;;;;;;39.69;31.24;100877.90;105448;1261;59214;-63
2023/08/15 11:11:39;;;;;;;3.10;1.70;;;;;;;39.70;30.69;100872.98;105651;1260;59349;-64
2023/08/15 11:14:17;;;;;;;6.60;1.80;;;;;;;39.85;30.84;100872.45;105469;1255;62177;-62
2023/08/15 11:16:46;;;;;;;4.90;1.80;;;;;;;40.11;30.34;100872.75;105215;1254;59340;-63
2023/08/15 11:19:20;;;;;;;2.70;1.60;;;;;;;40.25;30.19;100870.14;105334;1260;62512;-62
2023/08/15 11:21:48;;;;;;;2.90;1.80;;;;;;;40.18;29.98;100867.09;105231;1257;59719;-63
2023/08/15 11:24:16;;;;;;;2.20;1.60;;;;;;;40.07;30.86;100866.30;105551;1261;59704;-65
2023/08/15 11:26:44;;;;;;;3.50;1.40;;;;;;;40.04;30.89;100862.59;105496;1254;64828;-62
2023/08/15 11:29:12;;;;;;;4.00;1.50;;;;;;;40.21;30.85;100859.78;105646;1260;59767;-63
2023/08/15 11:31:41;;;;;;;3.50;1.90;;;;;;;40.25;30.90;100856.58;105875;1260;62429;-67
2023/08/15 11:34:11;;;;;;;2.20;1.30;;;;;;;40.21;30.54;100854.95;105473;1270;59659;-63
2023/08/15 11:36:39;;;;;;;3.20;1.70;;;;;;;40.11;30.31;100846.38;105797;1260;59716;-66
2023/08/15 11:39:13;;;;;;;2.40;1.80;;;;;;;39.95;30.78;100845.06;105437;1268;64143;-64
2023/08/15 11:41:41;;;;;;;3.80;2.00;;;;;;;39.78;30.40;100841.01;105628;1261;59647;-65
2023/08/15 11:44:09;;;;;;;3.10;2.10;;;;;;;39.40;31.37;100842.94;105436;1254;63841;-63
2023/08/15 11:46:37;;;;;;;2.40;1.50;;;;;;;39.05;32.62;100846.92;105881;1261;59726;-65
2023/08/15 11:49:24;;;;;;;2.50;1.50;;;;;;;38.91;33.00;100843.64;105687;1259;59343;-65
2023/08/15 11:51:51;;;;;;;4.20;1.50;;;;;;;38.83;32.76;100841.33;105417;1260;64249;-64
2023/08/15 11:54:25;;;;;;;2.90;1.60;;;;;;;38.84;32.22;100837.44;105370;1263;59527;-67
2023/08/15 11:56:54;;;;;;;3.30;1.70;;;;;;;38.85;31.53;100835.36;105571;1260;63800;-64
2023/08/15 11:59:25;;;;;;;2.10;1.60;;;;;;;38.67;31.55;100832.89;105633;1260;59605;-66